Time;durP1;ratioP1;P1;durP2;ratioP2;P2;SDS_P1;SDS_P2;PMS_P1;PMS_P2;Temp;Humidity;BMP_temperature;BMP_pressure;BME280_temperature;BME280_humidity;BME280_pressure;Samples;Min_cycle;Max_cycle;Signal;HPM_P1;HPM_P2
2021/05/08 00:01:00;;;;;;;12.37;5.23;;;;;;;;;;5026149;28;20238;-91
2021/05/08 00:04:05;;;;;;;11.80;5.60;;;;;;;;;;5026944;28;20216;-92
2021/05/08 00:07:10;;;;;;;9.73;4.70;;;;;;;;;;5026214;28;20193;-92
2021/05/08 00:10:17;;;;;;;10.03;4.73;;;;;;;;;;5025192;28;20263;-92
2021/05/08 00:13:22;;;;;;;10.27;5.60;;;;;;;;;;5029166;28;20196;-93
2021/05/08 00:16:26;;;;;;;11.37;5.20;;;;;;;;;;5029182;28;20195;-92
2021/05/08 00:19:31;;;;;;;9.93;5.23;;;;;;;;;;5029747;28;20265;-93
2021/05/08 00:22:37;;;;;;;9.60;4.97;;;;;;;;;;5030446;28;20183;-92
2021/05/08 00:25:42;;;;;;;7.80;4.70;;;;;;;;;;5029597;28;20221;-91
2021/05/08 00:28:48;;;;;;;9.93;4.90;;;;;;;;;;5030515;28;20662;-90
2021/05/08 00:31:52;;;;;;;12.17;5.20;;;;;;;;;;5029567;28;20308;-93
2021/05/08 00:34:57;;;;;;;9.67;4.83;;;;;;;;;;5029914;28;20235;-91
2021/05/08 00:38:02;;;;;;;9.83;5.13;;;;;;;;;;5029722;28;20227;-91
2021/05/08 00:41:10;;;;;;;9.87;4.90;;;;;;;;;;5030183;28;20193;-90
2021/05/08 00:44:17;;;;;;;19.20;8.20;;;;;;;;;;5029657;28;20258;-92
2021/05/08 00:47:26;;;;;;;10.23;5.27;;;;;;;;;;5030279;28;20273;-91
2021/05/08 00:50:32;;;;;;;11.80;5.70;;;;;;;;;;5030139;28;20212;-91
2021/05/08 00:53:38;;;;;;;12.43;5.10;;;;;;;;;;5030386;28;20240;-91
2021/05/08 00:56:44;;;;;;;9.77;5.23;;;;;;;;;;5030132;28;20212;-94
2021/05/08 00:59:49;;;;;;;12.83;5.40;;;;;;;;;;5031003;28;20256;-91
2021/05/08 01:02:55;;;;;;;11.00;5.50;;;;;;;;;;5030401;28;20216;-91
2021/05/08 01:06:00;;;;;;;10.90;5.80;;;;;;;;;;5029076;28;20220;-91
2021/05/08 01:09:05;;;;;;;10.77;5.10;;;;;;;;;;5030389;28;20180;-94
2021/05/08 01:12:11;;;;;;;9.37;5.33;;;;;;;;;;5029463;28;20257;-92
2021/05/08 01:15:16;;;;;;;12.87;5.47;;;;;;;;;;5029083;28;20220;-92
2021/05/08 01:18:26;;;;;;;11.70;5.63;;;;;;;;;;5028638;28;20277;-92
2021/05/08 01:21:31;;;;;;;11.63;5.07;;;;;;;;;;5028514;28;20192;-92
2021/05/08 01:24:36;;;;;;;12.23;5.40;;;;;;;;;;5029217;28;20192;-92
2021/05/08 01:27:46;;;;;;;11.97;6.17;;;;;;;;;;5028849;28;20188;-93
2021/05/08 01:30:51;;;;;;;11.33;6.40;;;;;;;;;;5028508;28;20208;-92
2021/05/08 01:33:56;;;;;;;12.67;5.93;;;;;;;;;;5028486;28;20196;-92
2021/05/08 01:37:03;;;;;;;10.53;5.63;;;;;;;;;;5027939;28;20263;-91
2021/05/08 01:40:11;;;;;;;13.37;6.40;;;;;;;;;;5028009;28;20192;-91
2021/05/08 01:43:16;;;;;;;11.00;6.17;;;;;;;;;;5027842;28;20196;-92
2021/05/08 01:46:22;;;;;;;19.77;6.60;;;;;;;;;;5028086;28;20334;-92
2021/05/08 01:49:27;;;;;;;15.47;6.97;;;;;;;;;;5027344;28;20774;-93
2021/05/08 01:52:33;;;;;;;13.20;6.53;;;;;;;;;;5026750;28;20225;-92
2021/05/08 01:55:38;;;;;;;20.93;6.53;;;;;;;;;;5027867;28;20265;-91
2021/05/08 01:58:47;;;;;;;12.00;5.57;;;;;;;;;;5027471;28;20560;-91
2021/05/08 02:01:51;;;;;;;9.50;5.10;;;;;;;;;;5026659;28;20614;-93
2021/05/08 02:04:56;;;;;;;10.93;6.07;;;;;;;;;;5027158;28;20192;-91
2021/05/08 02:08:04;;;;;;;12.43;5.43;;;;;;;;;;5027162;28;20658;-93
2021/05/08 02:11:08;;;;;;;10.73;5.93;;;;;;;;;;5028038;28;20212;-93
2021/05/08 02:14:13;;;;;;;21.33;6.77;;;;;;;;;;5027984;28;20188;-91
2021/05/08 02:17:18;;;;;;;25.20;7.50;;;;;;;;;;5027813;28;20196;-90
2021/05/08 02:20:26;;;;;;;15.63;7.27;;;;;;;;;;5026709;28;20213;-90
2021/05/08 02:23:32;;;;;;;18.37;7.80;;;;;;;;;;5026613;28;20276;-90
2021/05/08 02:26:37;;;;;;;16.67;7.40;;;;;;;;;;5025860;28;20235;-90
2021/05/08 02:29:42;;;;;;;12.67;7.20;;;;;;;;;;5026767;28;20189;-89
2021/05/08 02:32:48;;;;;;;13.67;6.70;;;;;;;;;;5026850;28;20193;-90
2021/05/08 02:35:53;;;;;;;12.33;6.87;;;;;;;;;;5027434;28;20185;-93
2021/05/08 02:38:58;;;;;;;14.33;6.30;;;;;;;;;;5027649;28;20212;-94
2021/05/08 02:42:04;;;;;;;15.03;6.03;;;;;;;;;;5027214;28;20209;-90
2021/05/08 02:45:10;;;;;;;17.43;6.50;;;;;;;;;;5027893;28;20185;-93
2021/05/08 02:48:16;;;;;;;16.67;6.10;;;;;;;;;;5027978;28;20200;-92
2021/05/08 02:51:28;;;;;;;12.97;6.47;;;;;;;;;;5027440;28;20271;-93
2021/05/08 02:54:34;;;;;;;27.20;7.00;;;;;;;;;;5027318;28;20192;-92
2021/05/08 02:57:39;;;;;;;14.97;6.50;;;;;;;;;;5023076;28;20216;-93
2021/05/08 03:00:44;;;;;;;14.07;6.93;;;;;;;;;;5027204;28;20272;-92
2021/05/08 03:03:52;;;;;;;30.10;7.67;;;;;;;;;;5017937;28;20212;-91
2021/05/08 03:06:57;;;;;;;36.93;7.43;;;;;;;;;;5018062;28;20180;-91
2021/05/08 03:10:04;;;;;;;25.73;7.10;;;;;;;;;;5028856;28;20600;-92
2021/05/08 03:13:09;;;;;;;16.10;6.97;;;;;;;;;;5029176;28;20188;-91
2021/05/08 03:16:15;;;;;;;24.93;7.13;;;;;;;;;;5017387;28;20732;-92
2021/05/08 03:19:22;;;;;;;17.00;7.70;;;;;;;;;;5028886;28;20188;-92
2021/05/08 03:22:27;;;;;;;23.60;8.47;;;;;;;;;;5018085;28;20247;-92
2021/05/08 03:25:34;;;;;;;30.70;7.60;;;;;;;;;;5029754;28;20316;-92
2021/05/08 03:28:40;;;;;;;17.77;7.70;;;;;;;;;;5029603;28;20214;-93
2021/05/08 03:31:45;;;;;;;16.20;7.37;;;;;;;;;;5030069;28;20224;-95
2021/05/08 03:34:51;;;;;;;14.80;7.97;;;;;;;;;;5029828;28;20197;-92
2021/05/08 03:37:59;;;;;;;17.87;8.10;;;;;;;;;;5029091;28;20240;-94
2021/05/08 03:41:05;;;;;;;15.93;8.23;;;;;;;;;;5017694;28;20204;-92
2021/05/08 03:44:10;;;;;;;13.53;7.43;;;;;;;;;;5029708;28;20227;-93
2021/05/08 03:47:14;;;;;;;12.53;7.53;;;;;;;;;;5019936;28;20196;-92
2021/05/08 03:50:19;;;;;;;14.10;7.73;;;;;;;;;;5021329;28;20216;-93
2021/05/08 03:53:25;;;;;;;14.03;6.70;;;;;;;;;;5021606;28;20260;-92
2021/05/08 03:56:30;;;;;;;11.53;6.73;;;;;;;;;;5032340;28;20192;-91
2021/05/08 03:59:35;;;;;;;13.10;7.47;;;;;;;;;;5032189;28;20169;-94
2021/05/08 04:03:11;;;;;;;13.40;7.30;;;;;;;;;;5032268;28;20185;-92
2021/05/08 04:06:16;;;;;;;11.30;6.57;;;;;;;;;;5032690;28;20580;-92
2021/05/08 04:09:21;;;;;;;19.70;7.37;;;;;;;;;;5031813;28;20665;-92
2021/05/08 04:12:26;;;;;;;15.90;8.10;;;;;;;;;;5032477;28;20260;-92
2021/05/08 04:15:31;;;;;;;12.13;6.93;;;;;;;;;;5031362;28;20188;-92
2021/05/08 04:18:36;;;;;;;12.93;7.17;;;;;;;;;;5031734;28;20255;-92
2021/05/08 04:21:41;;;;;;;13.77;7.13;;;;;;;;;;5030601;28;20185;-92
2021/05/08 04:24:45;;;;;;;14.53;8.17;;;;;;;;;;5018069;28;20188;-92
2021/05/08 04:27:51;;;;;;;12.93;7.53;;;;;;;;;;5030444;28;20172;-89
2021/05/08 04:30:56;;;;;;;11.97;6.80;;;;;;;;;;5032032;28;20263;-92
2021/05/08 04:34:01;;;;;;;14.07;7.60;;;;;;;;;;5032317;28;20189;-93
2021/05/08 04:37:06;;;;;;;14.90;7.23;;;;;;;;;;5020102;28;20601;-93
2021/05/08 04:40:11;;;;;;;12.63;6.83;;;;;;;;;;5032065;28;20184;-90
2021/05/08 04:43:17;;;;;;;11.57;6.90;;;;;;;;;;5030759;28;20205;-92
2021/05/08 04:46:23;;;;;;;13.80;7.07;;;;;;;;;;5019602;28;20213;-92
2021/05/08 04:49:28;;;;;;;13.60;7.53;;;;;;;;;;5031462;28;20197;-91
2021/05/08 04:52:33;;;;;;;12.17;6.53;;;;;;;;;;5030567;28;20188;-92
2021/05/08 04:55:38;;;;;;;13.23;7.37;;;;;;;;;;5031277;28;20192;-90
2021/05/08 04:58:44;;;;;;;15.63;7.30;;;;;;;;;;5030785;28;20219;-90
2021/05/08 05:01:49;;;;;;;20.27;7.20;;;;;;;;;;5032549;28;20184;-91
2021/05/08 05:04:54;;;;;;;24.90;7.50;;;;;;;;;;5021134;28;20180;-92
2021/05/08 05:07:59;;;;;;;13.80;7.30;;;;;;;;;;5021480;28;20197;-94
2021/05/08 05:11:04;;;;;;;15.07;6.87;;;;;;;;;;5031656;28;20220;-91
2021/05/08 05:14:11;;;;;;;11.77;7.30;;;;;;;;;;5031084;28;20208;-92
2021/05/08 05:17:16;;;;;;;11.30;7.10;;;;;;;;;;5032220;28;20332;-91
2021/05/08 05:20:21;;;;;;;13.50;6.80;;;;;;;;;;5019779;28;20204;-92
2021/05/08 05:23:28;;;;;;;11.33;6.70;;;;;;;;;;5032226;28;20273;-91
2021/05/08 05:26:32;;;;;;;14.77;6.90;;;;;;;;;;5020061;28;20228;-92
2021/05/08 05:29:38;;;;;;;15.00;7.03;;;;;;;;;;5030476;28;20192;-92
2021/05/08 05:32:43;;;;;;;12.93;6.93;;;;;;;;;;5030142;28;20249;-89
2021/05/08 05:35:49;;;;;;;9.33;6.00;;;;;;;;;;5030083;28;20175;-89
2021/05/08 05:38:54;;;;;;;14.37;6.77;;;;;;;;;;5031588;28;20197;-92
2021/05/08 05:41:59;;;;;;;12.77;7.27;;;;;;;;;;5020959;28;20208;-92
2021/05/08 05:45:06;;;;;;;12.90;7.83;;;;;;;;;;5031691;28;20189;-91
2021/05/08 05:48:11;;;;;;;10.80;6.97;;;;;;;;;;5030828;28;20200;-92
2021/05/08 05:55:36;;;;;;;11.87;6.87;;;;;;;;;;5032544;28;20169;-90
2021/05/08 05:58:41;;;;;;;12.93;6.77;;;;;;;;;;5032448;28;20185;-92
2021/05/08 06:01:48;;;;;;;14.07;7.53;;;;;;;;;;5020298;28;20192;-92
2021/05/08 06:04:53;;;;;;;16.60;8.20;;;;;;;;;;5019988;28;20174;-91
2021/05/08 06:07:58;;;;;;;11.30;6.70;;;;;;;;;;5021004;28;20192;-92
2021/05/08 06:11:03;;;;;;;15.37;6.60;;;;;;;;;;5020944;28;20235;-91
2021/05/08 06:14:20;;;;;;;12.03;6.97;;;;;;;;;;5020842;28;20192;-91
2021/05/08 06:17:26;;;;;;;11.23;6.87;;;;;;;;;;5020437;28;20182;-92
2021/05/08 06:20:31;;;;;;;12.73;6.80;;;;;;;;;;5030488;28;20277;-92
2021/05/08 06:23:36;;;;;;;12.27;6.97;;;;;;;;;;5018848;28;20192;-93
2021/05/08 06:26:44;;;;;;;9.93;5.97;;;;;;;;;;5019479;28;20188;-92
2021/05/08 06:29:50;;;;;;;10.77;5.93;;;;;;;;;;5020025;28;20240;-91
2021/05/08 06:32:55;;;;;;;8.30;5.60;;;;;;;;;;5021059;28;20495;-92
2021/05/08 06:36:00;;;;;;;8.87;5.10;;;;;;;;;;5018830;28;20196;-91
2021/05/08 06:39:06;;;;;;;8.47;5.30;;;;;;;;;;5029726;28;20212;-91
2021/05/08 06:42:11;;;;;;;9.30;5.50;;;;;;;;;;5031280;28;20207;-90
2021/05/08 06:45:17;;;;;;;7.53;5.17;;;;;;;;;;5018410;28;20662;-91
2021/05/08 06:48:23;;;;;;;9.07;5.30;;;;;;;;;;5019462;28;20240;-91
2021/05/08 06:51:28;;;;;;;8.55;4.57;;;;;;;;;;5018339;28;20273;-92
2021/05/08 06:54:33;;;;;;;7.47;5.30;;;;;;;;;;5017717;28;20211;-90
2021/05/08 06:57:38;;;;;;;9.20;5.00;;;;;;;;;;5028493;28;20189;-89
2021/05/08 07:00:42;;;;;;;7.13;4.50;;;;;;;;;;5027549;28;20242;-91
2021/05/08 07:03:49;;;;;;;7.85;4.72;;;;;;;;;;5017193;28;20184;-93
2021/05/08 07:06:55;;;;;;;9.05;5.07;;;;;;;;;;5017047;28;20196;-91
2021/05/08 07:10:00;;;;;;;8.70;5.07;;;;;;;;;;5016516;28;20200;-91
2021/05/08 07:13:05;;;;;;;6.60;4.63;;;;;;;;;;5016281;28;20192;-91
2021/05/08 07:16:10;;;;;;;10.35;5.22;;;;;;;;;;5027794;28;20184;-94
2021/05/08 07:19:16;;;;;;;10.88;4.90;;;;;;;;;;5027656;28;20235;-91
2021/05/08 07:22:20;;;;;;;7.00;4.70;;;;;;;;;;5025294;28;20239;-91
2021/05/08 07:25:25;;;;;;;6.53;4.60;;;;;;;;;;5024282;28;20291;-90
2021/05/08 07:28:30;;;;;;;9.55;5.55;;;;;;;;;;5024191;28;20188;-90
2021/05/08 07:31:34;;;;;;;7.20;4.63;;;;;;;;;;5023635;28;20613;-91
2021/05/08 07:34:40;;;;;;;11.60;5.65;;;;;;;;;;5024479;28;20200;-91
2021/05/08 07:37:49;;;;;;;7.85;5.35;;;;;;;;;;5025143;28;20191;-93
2021/05/08 07:40:54;;;;;;;9.30;5.70;;;;;;;;;;5026974;28;20216;-93
2021/05/08 07:43:58;;;;;;;10.38;5.72;;;;;;;;;;5026382;28;20215;-89
2021/05/08 07:47:05;;;;;;;11.18;5.55;;;;;;;;;;5014314;28;20220;-92
2021/05/08 07:50:11;;;;;;;8.68;5.45;;;;;;;;;;5014457;28;20192;-89
2021/05/08 07:53:16;;;;;;;8.43;5.03;;;;;;;;;;5012259;28;20221;-88
2021/05/08 07:56:22;;;;;;;9.43;5.05;;;;;;;;;;4995945;28;20234;-90
2021/05/08 07:59:27;;;;;;;8.32;5.10;;;;;;;;;;5003639;28;20277;-90
2021/05/08 08:02:32;;;;;;;7.57;4.78;;;;;;;;;;5014166;28;20550;-89
2021/05/08 08:05:37;;;;;;;13.45;5.40;;;;;;;;;;4997784;28;20558;-91
2021/05/08 08:08:43;;;;;;;6.90;5.00;;;;;;;;;;4998651;28;20189;-91
2021/05/08 08:11:48;;;;;;;9.57;4.55;;;;;;;;;;5011862;28;20228;-88
2021/05/08 08:14:53;;;;;;;7.50;4.75;;;;;;;;;;5013561;28;20242;-92
2021/05/08 08:17:58;;;;;;;8.60;4.90;;;;;;;;;;5014614;28;20203;-92
2021/05/08 08:21:04;;;;;;;7.32;4.63;;;;;;;;;;5018750;28;20180;-93
2021/05/08 08:24:10;;;;;;;7.10;4.68;;;;;;;;;;5017245;28;20175;-92
2021/05/08 08:27:15;;;;;;;6.45;4.13;;;;;;;;;;5018099;28;20203;-93
2021/05/08 08:30:20;;;;;;;6.03;4.13;;;;;;;;;;5019012;28;20192;-92
2021/05/08 08:33:26;;;;;;;15.98;4.95;;;;;;;;;;5022826;28;20706;-92
2021/05/08 08:36:32;;;;;;;7.22;3.80;;;;;;;;;;5022222;28;20212;-93
2021/05/08 08:39:39;;;;;;;9.75;5.32;;;;;;;;;;5021460;28;20180;-93
2021/05/08 08:42:45;;;;;;;8.15;4.03;;;;;;;;;;5022865;28;20212;-92
2021/05/08 08:45:51;;;;;;;6.97;3.40;;;;;;;;;;5017812;28;20231;-91
2021/05/08 08:48:55;;;;;;;7.25;3.58;;;;;;;;;;5016738;28;20284;-93
2021/05/08 08:52:01;;;;;;;6.68;3.78;;;;;;;;;;5017067;28;20602;-90
2021/05/08 08:55:07;;;;;;;8.02;3.80;;;;;;;;;;5018360;28;20204;-93
2021/05/08 08:58:12;;;;;;;6.30;3.97;;;;;;;;;;5015950;28;20192;-92
2021/05/08 09:01:18;;;;;;;6.85;4.07;;;;;;;;;;5017437;28;20189;-91
2021/05/08 09:04:23;;;;;;;6.78;3.67;;;;;;;;;;5017297;28;20200;-93
2021/05/08 09:07:31;;;;;;;7.05;4.00;;;;;;;;;;5017734;28;20207;-92
2021/05/08 09:10:40;;;;;;;6.40;3.33;;;;;;;;;;5017329;28;20209;-91
2021/05/08 09:13:44;;;;;;;10.60;3.80;;;;;;;;;;5019572;28;20199;-92
2021/05/08 09:17:06;;;;;;;9.30;3.20;;;;;;;;;;5007327;28;20204;-91
2021/05/08 09:20:11;;;;;;;4.50;3.25;;;;;;;;;;5008895;28;20201;-91
2021/05/08 09:23:24;;;;;;;5.65;3.10;;;;;;;;;;5009386;28;20194;-92
2021/05/08 09:26:38;;;;;;;5.47;3.55;;;;;;;;;;5010019;28;20193;-91
2021/05/08 09:29:47;;;;;;;3.97;2.92;;;;;;;;;;5017612;28;20231;-92
2021/05/08 09:32:58;;;;;;;15.35;3.30;;;;;;;;;;5018371;28;20224;-93
2021/05/08 09:36:04;;;;;;;5.22;2.85;;;;;;;;;;5018926;28;20192;-92
2021/05/08 09:39:26;;;;;;;5.68;2.95;;;;;;;;;;5021028;28;20216;-91
2021/05/08 09:42:43;;;;;;;4.90;2.92;;;;;;;;;;5019370;28;20197;-92
2021/05/08 09:45:51;;;;;;;5.93;3.13;;;;;;;;;;5018755;28;20277;-94
2021/05/08 09:49:09;;;;;;;7.35;2.90;;;;;;;;;;5031748;28;20224;-92
2021/05/08 09:52:14;;;;;;;6.35;2.95;;;;;;;;;;5015411;28;20220;-91
2021/05/08 09:55:21;;;;;;;6.00;3.35;;;;;;;;;;5015306;28;20208;-92
2021/05/08 09:58:26;;;;;;;4.55;3.00;;;;;;;;;;5013958;28;20196;-92
2021/05/08 10:01:30;;;;;;;6.22;2.72;;;;;;;;;;5025514;28;20180;-92
2021/05/08 10:04:36;;;;;;;6.05;2.40;;;;;;;;;;5016370;28;20627;-90
2021/05/08 10:07:42;;;;;;;6.40;2.50;;;;;;;;;;5017981;28;20235;-91
2021/05/08 10:10:47;;;;;;;7.70;2.55;;;;;;;;;;5015981;28;20208;-89
2021/05/08 10:13:52;;;;;;;4.35;2.72;;;;;;;;;;5014119;28;20259;-90
2021/05/08 10:16:58;;;;;;;4.57;2.38;;;;;;;;;;5029258;28;20220;-89
2021/05/08 10:20:05;;;;;;;4.53;2.50;;;;;;;;;;5019958;28;20263;-91
2021/05/08 10:23:10;;;;;;;3.90;2.45;;;;;;;;;;5030713;28;20563;-92
2021/05/08 10:26:17;;;;;;;5.35;2.53;;;;;;;;;;5019995;28;20578;-92
2021/05/08 10:29:21;;;;;;;4.20;2.60;;;;;;;;;;5019298;28;20188;-89
2021/05/08 10:32:26;;;;;;;5.32;2.58;;;;;;;;;;5030239;28;20224;-91
2021/05/08 10:35:38;;;;;;;5.68;2.83;;;;;;;;;;4999426;28;20246;-90
2021/05/08 10:39:03;;;;;;;9.38;2.55;;;;;;;;;;5011331;28;20189;-92
2021/05/08 10:42:12;;;;;;;5.13;2.50;;;;;;;;;;5008573;28;20197;-89
2021/05/08 10:45:33;;;;;;;6.10;2.25;;;;;;;;;;5007713;28;20193;-92
2021/05/08 10:48:38;;;;;;;3.42;2.20;;;;;;;;;;5008032;28;20201;-91
2021/05/08 10:51:56;;;;;;;4.40;2.55;;;;;;;;;;5008105;28;20212;-91
2021/05/08 10:55:00;;;;;;;5.28;2.47;;;;;;;;;;5006377;28;20274;-91
2021/05/08 10:58:24;;;;;;;8.35;2.38;;;;;;;;;;4994441;28;20205;-92
2021/05/08 11:01:40;;;;;;;5.00;2.58;;;;;;;;;;5008530;28;20254;-90
2021/05/08 11:04:59;;;;;;;3.97;2.33;;;;;;;;;;5008208;28;20197;-93
2021/05/08 11:08:23;;;;;;;6.03;2.60;;;;;;;;;;4997919;28;20193;-91
2021/05/08 11:11:48;;;;;;;5.43;2.70;;;;;;;;;;5000908;28;20232;-92
2021/05/08 11:14:54;;;;;;;6.68;2.05;;;;;;;;;;5017741;28;20667;-91
2021/05/08 11:18:05;;;;;;;4.32;2.30;;;;;;;;;;5018216;28;20273;-92
2021/05/08 11:21:30;;;;;;;4.35;1.90;;;;;;;;;;5028138;28;20195;-92
2021/05/08 11:24:36;;;;;;;3.85;1.90;;;;;;;;;;5014721;28;20180;-93
2021/05/08 11:27:41;;;;;;;5.28;2.00;;;;;;;;;;5017036;28;20215;-90
2021/05/08 11:30:52;;;;;;;3.20;1.80;;;;;;;;;;5019235;28;20216;-93
2021/05/08 11:34:15;;;;;;;4.32;2.08;;;;;;;;;;5009922;28;20192;-92
2021/05/08 11:37:23;;;;;;;5.13;1.88;;;;;;;;;;5018665;28;20216;-92
2021/05/08 11:40:32;;;;;;;2.63;1.70;;;;;;;;;;5018230;28;20192;-93
2021/05/08 11:43:37;;;;;;;3.75;1.90;;;;;;;;;;5020170;28;20192;-92
2021/05/08 11:46:51;;;;;;;3.33;1.45;;;;;;;;;;5017172;28;20237;-92
2021/05/08 11:49:57;;;;;;;5.53;1.80;;;;;;;;;;5019227;28;20184;-93
2021/05/08 11:53:03;;;;;;;6.68;1.70;;;;;;;;;;5019266;28;20212;-91
2021/05/08 11:56:08;;;;;;;3.65;2.22;;;;;;;;;;5017176;28;20239;-91
2021/05/08 11:59:12;;;;;;;5.43;2.10;;;;;;;;;;5013757;28;20928;-92
2021/05/08 12:02:19;;;;;;;5.28;1.70;;;;;;;;;;5016901;28;20184;-91
2021/05/08 12:05:38;;;;;;;3.78;1.88;;;;;;;;;;5015338;28;20220;-91
2021/05/08 12:08:44;;;;;;;10.70;2.42;;;;;;;;;;5019550;28;20176;-93
2021/05/08 12:11:48;;;;;;;3.33;2.28;;;;;;;;;;5017397;28;20271;-91
2021/05/08 12:14:53;;;;;;;6.28;3.60;;;;;;;;;;5016530;28;20246;-91
2021/05/08 12:17:59;;;;;;;6.13;1.88;;;;;;;;;;5018290;28;20216;-92
2021/05/08 12:21:04;;;;;;;4.80;2.50;;;;;;;;;;5016790;28;20184;-93
2021/05/08 12:24:13;;;;;;;4.65;2.55;;;;;;;;;;5016651;28;20276;-90
2021/05/08 12:27:17;;;;;;;6.32;2.15;;;;;;;;;;5016827;28;20197;-92
2021/05/08 12:30:32;;;;;;;5.88;2.40;;;;;;;;;;5026575;28;20248;-90
2021/05/08 12:33:37;;;;;;;3.30;1.98;;;;;;;;;;5024324;28;20189;-89
2021/05/08 12:36:42;;;;;;;4.53;2.20;;;;;;;;;;5018280;28;20256;-91
2021/05/08 12:39:48;;;;;;;4.28;1.90;;;;;;;;;;5018670;28;20596;-92
2021/05/08 12:42:53;;;;;;;3.38;1.92;;;;;;;;;;5019127;28;20204;-93
2021/05/08 12:46:01;;;;;;;4.07;2.22;;;;;;;;;;5018213;28;20212;-91
2021/05/08 12:49:06;;;;;;;3.40;1.92;;;;;;;;;;5020313;28;20188;-92
2021/05/08 12:52:32;;;;;;;3.70;1.92;;;;;;;;;;5017338;28;20248;-90
2021/05/08 12:55:39;;;;;;;4.80;2.40;;;;;;;;;;5019352;28;20193;-91
2021/05/08 12:58:44;;;;;;;2.42;1.63;;;;;;;;;;5018790;28;20192;-92
2021/05/08 13:01:49;;;;;;;4.22;2.30;;;;;;;;;;5018955;28;20229;-92
2021/05/08 13:04:54;;;;;;;3.45;2.10;;;;;;;;;;5018883;28;20192;-93
2021/05/08 13:08:02;;;;;;;3.42;2.03;;;;;;;;;;5018830;28;20695;-92
2021/05/08 13:11:08;;;;;;;3.92;2.30;;;;;;;;;;5018386;28;20213;-92
2021/05/08 13:14:20;;;;;;;2.97;1.80;;;;;;;;;;5017970;28;20212;-93
2021/05/08 13:17:28;;;;;;;4.88;1.92;;;;;;;;;;5018242;28;20192;-93
2021/05/08 13:20:35;;;;;;;2.10;1.80;;;;;;;;;;5017920;28;20189;-91
2021/05/08 13:23:41;;;;;;;2.92;2.10;;;;;;;;;;5028719;28;20200;-92
2021/05/08 13:26:47;;;;;;;2.67;1.58;;;;;;;;;;5016107;28;20180;-93
2021/05/08 13:29:52;;;;;;;5.70;2.10;;;;;;;;;;5016559;28;20200;-93
2021/05/08 13:32:57;;;;;;;2.28;1.65;;;;;;;;;;5016600;28;20240;-93
2021/05/08 13:36:02;;;;;;;2.70;1.98;;;;;;;;;;5015502;28;20188;-91
2021/05/08 13:39:07;;;;;;;4.18;2.00;;;;;;;;;;5017753;28;20195;-93
2021/05/08 13:42:14;;;;;;;3.20;1.98;;;;;;;;;;5018772;28;20250;-91
2021/05/08 13:45:19;;;;;;;5.40;2.00;;;;;;;;;;5019467;28;20263;-90
2021/05/08 13:48:24;;;;;;;2.80;1.85;;;;;;;;;;5019406;28;20185;-93
2021/05/08 13:51:31;;;;;;;3.35;1.77;;;;;;;;;;5018603;28;20694;-91
2021/05/08 13:54:36;;;;;;;4.25;1.92;;;;;;;;;;5017363;28;20188;-93
2021/05/08 13:57:42;;;;;;;3.55;1.90;;;;;;;;;;5015562;28;20172;-91
2021/05/08 14:00:47;;;;;;;2.10;1.60;;;;;;;;;;5016440;28;20193;-92
2021/05/08 14:03:51;;;;;;;3.20;2.00;;;;;;;;;;5017239;28;20185;-91
2021/05/08 14:06:57;;;;;;;3.15;1.70;;;;;;;;;;5019687;28;20240;-92
2021/05/08 14:10:01;;;;;;;3.40;1.90;;;;;;;;;;5019766;28;20660;-93
2021/05/08 14:13:08;;;;;;;3.63;1.67;;;;;;;;;;5016779;28;20216;-91
2021/05/08 14:16:12;;;;;;;4.78;1.98;;;;;;;;;;5016536;28;20222;-90
2021/05/08 14:19:18;;;;;;;3.50;1.90;;;;;;;;;;5015952;28;20172;-91
2021/05/08 14:22:22;;;;;;;6.20;2.67;;;;;;;;;;5017520;28;20188;-93
2021/05/08 14:25:27;;;;;;;3.50;1.63;;;;;;;;;;5017161;28;20265;-93
2021/05/08 14:28:34;;;;;;;5.15;1.70;;;;;;;;;;5016906;28;20183;-91
2021/05/08 14:31:39;;;;;;;4.05;2.13;;;;;;;;;;5017454;28;20632;-92
2021/05/08 14:34:44;;;;;;;2.95;1.90;;;;;;;;;;5016681;28;20200;-93
2021/05/08 14:37:49;;;;;;;7.90;1.90;;;;;;;;;;5016147;28;20216;-92
2021/05/08 14:40:53;;;;;;;4.13;1.85;;;;;;;;;;5017363;28;20212;-93
2021/05/08 14:44:03;;;;;;;4.63;2.00;;;;;;;;;;5017417;28;20362;-91
2021/05/08 14:47:09;;;;;;;3.67;1.90;;;;;;;;;;5016884;28;20212;-92
2021/05/08 14:50:15;;;;;;;3.13;1.73;;;;;;;;;;5014979;28;20212;-92
2021/05/08 14:53:20;;;;;;;3.78;1.90;;;;;;;;;;5016586;28;20289;-92
2021/05/08 14:56:27;;;;;;;1.98;1.50;;;;;;;;;;5015177;28;20659;-92
2021/05/08 14:59:34;;;;;;;2.13;1.60;;;;;;;;;;5015501;28;20194;-91
2021/05/08 15:02:39;;;;;;;6.75;1.75;;;;;;;;;;5012730;28;20235;-92
2021/05/08 15:05:43;;;;;;;2.45;1.70;;;;;;;;;;5012059;28;20188;-89
2021/05/08 15:08:48;;;;;;;3.67;1.73;;;;;;;;;;5014552;28;20235;-92
2021/05/08 15:11:52;;;;;;;2.63;1.50;;;;;;;;;;5025511;28;20208;-89
2021/05/08 15:14:57;;;;;;;5.70;1.80;;;;;;;;;;5014383;28;20196;-90
2021/05/08 15:18:02;;;;;;;2.35;1.65;;;;;;;;;;5025751;28;20267;-91
2021/05/08 15:21:07;;;;;;;2.88;1.50;;;;;;;;;;5023440;28;20568;-90
2021/05/08 15:24:11;;;;;;;3.20;1.98;;;;;;;;;;5025396;28;20235;-89
2021/05/08 15:27:16;;;;;;;3.13;1.70;;;;;;;;;;5024449;28;20275;-89
2021/05/08 15:30:22;;;;;;;2.88;1.70;;;;;;;;;;5022811;28;20196;-89
2021/05/08 15:33:27;;;;;;;2.22;1.40;;;;;;;;;;5012426;28;20211;-90
2021/05/08 15:36:33;;;;;;;3.38;1.95;;;;;;;;;;5012202;28;20737;-89
2021/05/08 15:39:38;;;;;;;3.92;1.67;;;;;;;;;;5011869;28;20185;-89
2021/05/08 15:42:43;;;;;;;5.60;1.67;;;;;;;;;;5011221;28;20189;-89
2021/05/08 15:45:49;;;;;;;4.65;1.60;;;;;;;;;;5013601;28;20265;-91
2021/05/08 15:48:53;;;;;;;3.47;1.73;;;;;;;;;;5024238;28;20188;-90
2021/05/08 15:51:58;;;;;;;2.85;1.90;;;;;;;;;;5011596;28;20355;-89
2021/05/08 15:55:03;;;;;;;3.75;2.15;;;;;;;;;;5024780;28;20192;-92
2021/05/08 15:58:08;;;;;;;2.65;1.80;;;;;;;;;;5023685;28;20210;-89
2021/05/08 16:01:14;;;;;;;2.92;1.60;;;;;;;;;;5024659;28;20193;-90
2021/05/08 16:04:19;;;;;;;3.45;1.70;;;;;;;;;;5025835;28;20193;-89
2021/05/08 16:07:24;;;;;;;2.72;1.60;;;;;;;;;;5025154;28;20208;-89
2021/05/08 16:10:29;;;;;;;3.33;1.75;;;;;;;;;;5027885;28;20180;-90
2021/05/08 16:13:33;;;;;;;4.45;1.52;;;;;;;;;;5024503;28;20645;-90
2021/05/08 16:16:39;;;;;;;2.53;1.63;;;;;;;;;;5011980;28;20232;-91
2021/05/08 16:19:44;;;;;;;3.55;1.45;;;;;;;;;;5013182;28;20328;-89
2021/05/08 16:22:48;;;;;;;4.63;1.90;;;;;;;;;;5024840;28;20199;-92
2021/05/08 16:25:53;;;;;;;4.80;2.03;;;;;;;;;;5012889;28;20232;-89
2021/05/08 16:28:58;;;;;;;5.57;3.25;;;;;;;;;;5023573;28;20200;-91
2021/05/08 16:32:04;;;;;;;6.97;2.30;;;;;;;;;;5023776;28;20204;-91
2021/05/08 16:35:09;;;;;;;2.70;1.90;;;;;;;;;;5023940;28;20200;-90
2021/05/08 16:38:14;;;;;;;5.32;3.10;;;;;;;;;;5013252;28;20228;-91
2021/05/08 16:41:20;;;;;;;4.30;1.50;;;;;;;;;;5023335;28;20193;-90
2021/05/08 16:44:25;;;;;;;4.63;1.98;;;;;;;;;;5023874;28;20261;-90
2021/05/08 16:47:34;;;;;;;5.32;1.73;;;;;;;;;;5012527;28;20189;-90
2021/05/08 16:50:39;;;;;;;3.20;1.70;;;;;;;;;;5023149;28;20671;-89
2021/05/08 16:53:43;;;;;;;2.58;1.63;;;;;;;;;;5024710;28;20188;-89
2021/05/08 16:56:48;;;;;;;2.97;1.42;;;;;;;;;;5027942;28;20666;-90
2021/05/08 16:59:53;;;;;;;2.60;1.55;;;;;;;;;;5029727;28;20267;-89
2021/05/08 17:02:58;;;;;;;5.57;1.60;;;;;;;;;;5015414;28;20719;-89
2021/05/08 17:06:04;;;;;;;3.65;1.40;;;;;;;;;;5027556;28;20180;-89
2021/05/08 17:09:08;;;;;;;12.65;6.72;;;;;;;;;;5027240;28;20220;-89
2021/05/08 17:12:15;;;;;;;13.48;6.47;;;;;;;;;;5026873;28;20309;-91
2021/05/08 17:15:20;;;;;;;4.18;1.63;;;;;;;;;;5025634;28;20183;-90
2021/05/08 17:18:26;;;;;;;9.18;2.15;;;;;;;;;;5027284;28;20658;-92
2021/05/08 17:21:30;;;;;;;728.83;403.23;;;;;;;;;;5024967;28;20671;-91
2021/05/08 17:24:36;;;;;;;29.55;17.25;;;;;;;;;;5014869;28;20241;-89
2021/05/08 17:27:41;;;;;;;3.85;2.20;;;;;;;;;;5027083;28;20191;-89
2021/05/08 17:30:46;;;;;;;5.90;1.75;;;;;;;;;;5013270;28;20197;-92
2021/05/08 17:33:52;;;;;;;7.15;3.50;;;;;;;;;;5015826;28;20275;-89
2021/05/08 17:36:57;;;;;;;4.78;2.30;;;;;;;;;;5026742;28;20212;-91
2021/05/08 17:40:02;;;;;;;21.42;7.80;;;;;;;;;;5029759;28;20288;-89
2021/05/08 17:43:07;;;;;;;55.13;20.13;;;;;;;;;;5017106;28;20193;-87
2021/05/08 17:46:12;;;;;;;7.03;4.03;;;;;;;;;;5015642;28;20196;-90
2021/05/08 17:49:20;;;;;;;4.40;2.20;;;;;;;;;;5015829;28;20199;-90
2021/05/08 17:52:25;;;;;;;11.18;2.67;;;;;;;;;;5027320;28;20216;-88
2021/05/08 17:55:30;;;;;;;5.10;2.78;;;;;;;;;;5028032;28;20197;-89
2021/05/08 17:59:24;;;;;;;4.22;2.45;;;;;;;;;;5026577;28;20240;-89
2021/05/08 18:02:29;;;;;;;4.78;2.40;;;;;;;;;;5013383;28;20200;-88
2021/05/08 18:05:34;;;;;;;3.15;2.00;;;;;;;;;;5013524;28;20208;-89
2021/05/08 18:08:39;;;;;;;5.40;1.80;;;;;;;;;;5025731;28;20192;-89
2021/05/08 18:11:44;;;;;;;4.07;1.88;;;;;;;;;;5024659;28;20268;-89
2021/05/08 18:14:49;;;;;;;5.80;2.30;;;;;;;;;;5005167;28;20244;-89
2021/05/08 18:17:54;;;;;;;8.95;2.13;;;;;;;;;;5008658;28;20212;-89
2021/05/08 18:20:59;;;;;;;3.45;2.05;;;;;;;;;;5022858;28;20212;-87
2021/05/08 18:24:04;;;;;;;6.00;1.73;;;;;;;;;;5011902;28;20698;-88
2021/05/08 18:27:09;;;;;;;3.20;1.70;;;;;;;;;;5023502;28;20243;-88
2021/05/08 18:30:15;;;;;;;3.10;1.67;;;;;;;;;;5017612;28;20204;-90
2021/05/08 18:33:19;;;;;;;10.57;2.60;;;;;;;;;;5005865;28;20220;-90
2021/05/08 18:36:25;;;;;;;5.75;2.30;;;;;;;;;;5005041;28;20200;-90